createdAt,value
2023-04-02T00:02:23.345Z,101134.81
2023-04-02T00:05:31.646Z,101126.44
2023-04-02T00:08:03.923Z,101141.38
2023-04-02T00:10:46.815Z,101152.09
2023-04-02T00:13:15.602Z,101150.97
2023-04-02T00:15:49.503Z,101140.63
2023-04-02T00:18:23.989Z,101087.78
2023-04-02T00:20:56.153Z,101161.72
2023-04-02T00:23:23.692Z,101130.75
2023-04-02T00:25:52.569Z,101173.59
2023-04-02T00:28:22.622Z,101169.88
2023-04-02T00:31:10.816Z,101173.59
2023-04-02T00:33:38.090Z,101166.16
2023-04-02T00:36:08.879Z,101181.84
2023-04-02T00:38:35.919Z,101158.00
2023-04-02T00:41:07.229Z,101189.38
2023-04-02T00:43:39.732Z,101175.13
2023-04-02T00:46:16.060Z,101203.91
2023-04-02T00:49:09.919Z,101213.03
2023-04-02T00:51:44.549Z,101212.16
2023-04-02T00:54:16.156Z,101142.84
2023-04-02T00:56:46.424Z,101204.34
2023-04-02T00:59:30.253Z,101225.97
2023-04-02T01:02:17.356Z,101224.38
2023-04-02T01:05:20.039Z,101230.91
2023-04-02T01:08:06.204Z,101244.22
2023-04-02T01:10:32.805Z,101229.94
2023-04-02T01:13:12.790Z,101249.03
2023-04-02T01:15:44.250Z,101252.97
2023-04-02T01:18:19.669Z,101257.38
2023-04-02T01:21:01.976Z,101256.75
2023-04-02T01:24:00.886Z,101146.44
2023-04-02T01:26:30.503Z,101267.38
2023-04-02T01:29:16.542Z,101270.09
2023-04-02T01:31:47.651Z,101269.38
2023-04-02T01:34:18.002Z,101274.38
2023-04-02T01:36:59.192Z,101296.81
2023-04-02T01:39:44.737Z,101279.81
2023-04-02T01:42:19.677Z,101288.56
2023-04-02T01:44:56.714Z,101292.81
2023-04-02T01:47:27.444Z,101295.50
2023-04-02T01:50:01.157Z,101307.09
2023-04-02T01:52:42.630Z,101310.78
2023-04-02T01:55:15.073Z,101316.22
2023-04-02T01:57:49.465Z,101317.09
2023-04-02T02:00:18.829Z,101317.97
2023-04-02T02:02:50.420Z,101327.94
2023-04-02T02:05:21.384Z,101308.28
2023-04-02T02:07:48.381Z,101331.97
2023-04-02T02:10:27.346Z,101333.53
2023-04-02T02:12:59.309Z,101340.81
2023-04-02T02:15:27.503Z,101334.19
2023-04-02T02:18:04.308Z,101328.06
2023-04-02T02:20:36.217Z,101339.22
2023-04-02T02:23:04.168Z,101355.25
2023-04-02T02:25:34.269Z,101357.97
2023-04-02T02:28:17.212Z,101367.16
2023-04-02T02:30:49.024Z,101363.94
2023-04-02T02:33:37.606Z,101374.66
2023-04-02T02:36:22.988Z,101385.28
2023-04-02T02:38:56.982Z,101388.13
2023-04-02T02:41:26.541Z,101394.66
2023-04-02T02:44:08.480Z,101400.28
2023-04-02T02:46:48.054Z,101413.72
2023-04-02T02:49:22.614Z,101404.28
2023-04-02T02:52:15.339Z,101409.16
2023-04-02T02:55:06.167Z,101419.91
2023-04-02T02:57:38.504Z,101418.94
2023-04-02T03:00:09.748Z,101428.78
2023-04-02T03:02:41.613Z,101421.53
2023-04-02T03:05:09.982Z,101427.81
2023-04-02T03:07:37.421Z,101442.31
2023-04-02T03:10:06.841Z,101443.84
2023-04-02T03:12:45.857Z,101453.84
2023-04-02T03:15:37.286Z,101366.72
2023-04-02T03:18:46.366Z,101462.69
2023-04-02T03:21:28.122Z,101470.06
2023-04-02T03:24:02.978Z,101481.78
2023-04-02T03:26:29.596Z,101485.88
2023-04-02T03:29:21.138Z,101266.34
2023-04-02T03:31:54.961Z,101490.53
2023-04-02T03:34:39.706Z,101497.59
2023-04-02T03:37:32.243Z,101488.69
2023-04-02T03:40:17.457Z,101514.00
2023-04-02T03:43:21.980Z,101443.09
2023-04-02T03:45:53.223Z,101521.34
2023-04-02T03:48:34.672Z,101524.50
2023-04-02T03:51:09.106Z,101545.72
2023-04-02T03:53:35.840Z,101549.44
2023-04-02T03:56:02.628Z,101551.69
2023-04-02T03:58:39.712Z,101539.06
2023-04-02T04:01:23.213Z,101565.00
2023-04-02T04:03:53.673Z,101477.34
2023-04-02T04:06:31.788Z,101574.28
2023-04-02T04:09:35.483Z,101584.56
2023-04-02T04:12:17.257Z,101584.84
2023-04-02T04:14:51.862Z,101590.44
2023-04-02T04:17:34.958Z,101596.06
2023-04-02T04:20:22.596Z,101603.63
2023-04-02T04:22:56.137Z,101591.28
2023-04-02T04:25:30.696Z,101594.38
2023-04-02T04:28:12.730Z,101623.06
2023-04-02T04:31:00.007Z,101617.84
2023-04-02T04:33:39.590Z,101642.31
2023-04-02T04:36:19.278Z,101647.16
2023-04-02T04:38:55.719Z,101647.25
2023-04-02T04:41:29.125Z,101595.50
2023-04-02T04:44:01.679Z,101641.66
2023-04-02T04:46:41.451Z,101626.31
2023-04-02T04:49:17.698Z,101673.66
2023-04-02T04:51:51.160Z,101670.09
2023-04-02T04:54:18.668Z,101628.75
2023-04-02T04:56:49.982Z,101671.53
2023-04-02T04:59:44.555Z,101630.97
2023-04-02T05:02:15.106Z,101672.63
2023-04-02T05:04:46.834Z,101697.28
2023-04-02T05:07:23.848Z,101687.41
2023-04-02T05:10:15.075Z,101712.66
2023-04-02T05:13:04.199Z,101714.56
2023-04-02T05:15:52.749Z,101715.66
2023-04-02T05:18:25.294Z,101721.91
2023-04-02T05:21:07.331Z,101709.84
2023-04-02T05:23:48.971Z,101732.75
2023-04-02T05:26:33.276Z,101728.59
2023-04-02T05:29:28.727Z,101727.88
2023-04-02T05:32:02.221Z,101708.34
2023-04-02T05:34:33.799Z,101736.19
2023-04-02T05:37:00.852Z,101734.44
2023-04-02T05:39:27.854Z,101713.63
2023-04-02T05:42:03.589Z,101723.59
2023-04-02T05:44:38.647Z,101766.47
2023-04-02T05:47:28.543Z,101750.97
2023-04-02T05:50:04.776Z,101775.94
2023-04-02T05:52:37.115Z,101783.09
2023-04-02T05:55:37.435Z,101786.75
2023-04-02T06:01:07.841Z,101799.28
2023-04-02T06:03:47.758Z,101804.88
2023-04-02T06:06:43.923Z,101814.94
2023-04-02T06:09:21.402Z,101798.25
2023-04-02T06:11:57.468Z,101808.06
2023-04-02T06:14:26.672Z,101795.47
2023-04-02T06:16:53.454Z,101850.66
2023-04-02T06:19:29.223Z,101857.28
2023-04-02T06:22:03.548Z,101826.00
2023-04-02T06:24:31.642Z,101866.97
2023-04-02T06:27:06.489Z,101846.59
2023-04-02T06:29:40.097Z,101880.75
2023-04-02T06:32:08.605Z,101861.66
2023-04-02T06:34:38.721Z,101889.78
2023-04-02T06:37:22.323Z,101890.88
2023-04-02T06:39:48.926Z,101894.81
2023-04-02T06:42:23.879Z,101888.59
2023-04-02T06:44:51.168Z,101890.03
2023-04-02T06:47:42.437Z,101905.53
2023-04-02T06:50:23.840Z,101916.69
2023-04-02T06:53:05.365Z,101912.94
2023-04-02T06:55:47.666Z,101934.06
2023-04-02T06:58:19.523Z,101943.22
2023-04-02T07:00:51.116Z,101939.81
2023-04-02T07:03:21.770Z,101960.94
2023-04-02T07:05:48.511Z,101959.09
2023-04-02T07:08:15.304Z,101974.22
2023-04-02T07:10:42.215Z,101982.50
2023-04-02T07:13:21.654Z,101980.13
2023-04-02T07:15:52.199Z,101976.97
2023-04-02T07:18:29.761Z,101996.59
2023-04-02T07:20:59.189Z,102003.69
2023-04-02T07:23:26.544Z,101984.03
2023-04-02T07:25:54.931Z,102013.50
2023-04-02T07:28:22.859Z,102020.34
2023-04-02T07:30:51.284Z,102017.81
2023-04-02T07:33:22.585Z,101995.16
2023-04-02T07:35:51.289Z,102034.84
2023-04-02T07:38:17.928Z,102037.22
2023-04-02T07:40:44.602Z,102040.09
2023-04-02T07:43:11.970Z,102035.75
2023-04-02T07:45:38.807Z,102048.28
2023-04-02T07:48:13.416Z,102033.88
2023-04-02T07:50:42.255Z,102036.56
2023-04-02T07:53:27.156Z,102034.16
2023-04-02T07:55:53.865Z,102054.44
2023-04-02T07:58:20.493Z,102054.84
2023-04-02T08:00:47.102Z,102055.28
2023-04-02T08:03:14.293Z,102056.44
2023-04-02T08:05:41.256Z,102052.28
2023-04-02T08:08:07.813Z,102057.44
2023-04-02T08:10:39.144Z,102065.19
2023-04-02T08:13:05.970Z,102016.88
2023-04-02T08:15:35.059Z,102083.16
2023-04-02T08:18:04.384Z,102091.91
2023-04-02T08:20:31.598Z,102105.19
2023-04-02T08:22:58.329Z,102108.25
2023-04-02T08:25:28.048Z,102104.59
2023-04-02T08:27:54.724Z,102124.16
2023-04-02T08:30:21.810Z,102116.03
2023-04-02T08:32:50.780Z,102120.91
2023-04-02T08:35:17.575Z,102114.25
2023-04-02T08:37:44.541Z,102143.88
2023-04-02T08:40:25.717Z,102137.69
2023-04-02T08:43:17.571Z,102145.81
2023-04-02T08:46:13.286Z,102154.09
2023-04-02T08:48:44.072Z,102154.72
2023-04-02T08:51:22.687Z,102155.72
2023-04-02T08:53:50.480Z,102079.44
2023-04-02T08:56:29.466Z,102171.94
2023-04-02T08:59:11.274Z,102170.19
2023-04-02T09:01:47.740Z,102185.44
2023-04-02T09:04:18.875Z,102184.38
2023-04-02T09:06:47.202Z,102196.00
2023-04-02T09:09:15.712Z,102172.41
2023-04-02T09:11:56.907Z,102162.16
2023-04-02T09:14:51.334Z,102206.44
2023-04-02T09:17:21.233Z,102220.13
2023-04-02T09:20:11.729Z,102218.25
2023-04-02T09:22:39.576Z,102194.38
2023-04-02T09:25:15.365Z,102221.41
2023-04-02T09:27:42.264Z,102240.19
2023-04-02T09:30:42.792Z,102240.97
2023-04-02T09:33:11.974Z,102234.47
2023-04-02T09:36:09.520Z,102180.16
2023-04-02T09:39:29.178Z,102253.97
2023-04-02T09:42:05.473Z,102265.66
2023-04-02T09:44:48.445Z,102260.31
2023-04-02T09:47:28.188Z,102269.31
2023-04-02T09:49:55.613Z,102280.84
2023-04-02T09:52:33.975Z,102285.38
2023-04-02T09:55:19.514Z,102289.38
2023-04-02T09:58:24.033Z,102291.75
2023-04-02T10:01:07.270Z,102297.25
2023-04-02T10:03:37.360Z,102267.72
2023-04-02T10:06:09.351Z,102297.63
2023-04-02T10:08:37.492Z,102298.91
2023-04-02T10:11:11.111Z,102302.91
2023-04-02T10:13:49.617Z,102308.94
2023-04-02T10:16:39.519Z,102307.75
2023-04-02T10:19:22.963Z,102313.50
2023-04-02T10:21:50.655Z,102298.56
2023-04-02T10:24:18.593Z,102323.53
2023-04-02T10:26:48.060Z,102318.59
2023-04-02T10:29:37.215Z,102321.50
2023-04-02T10:32:18.776Z,102238.16
2023-04-02T10:35:30.580Z,102334.44
2023-04-02T10:38:50.773Z,102335.22
2023-04-02T10:41:31.598Z,102343.66
2023-04-02T10:44:06.171Z,102348.50
2023-04-02T10:46:57.457Z,102361.84
2023-04-02T10:49:36.028Z,102362.13
2023-04-02T10:52:26.374Z,102364.38
2023-04-02T10:54:57.818Z,102362.47
2023-04-02T10:57:38.549Z,102360.47
2023-04-02T11:00:17.472Z,102363.53
2023-04-02T11:02:58.023Z,102363.78
2023-04-02T11:05:58.141Z,102367.84
2023-04-02T11:08:49.269Z,102369.47
2023-04-02T11:11:24.957Z,102378.06
2023-04-02T11:14:16.768Z,102385.50
2023-04-02T11:16:45.486Z,102389.88
2023-04-02T11:19:19.618Z,102390.16
2023-04-02T11:22:01.860Z,102403.28
2023-04-02T11:24:37.368Z,102416.00
2023-04-02T11:27:13.969Z,102407.59
2023-04-02T11:29:49.493Z,102401.81
2023-04-02T11:32:22.356Z,102406.00
2023-04-02T11:34:56.316Z,102414.75
2023-04-02T11:38:05.698Z,102402.44
2023-04-02T11:40:54.442Z,102416.34
2023-04-02T11:43:33.832Z,102427.28
2023-04-02T11:46:28.845Z,102442.44
2023-04-02T11:49:42.067Z,102432.63
2023-04-02T11:52:29.190Z,102442.78
2023-04-02T11:55:06.158Z,102436.47
2023-04-02T11:57:55.295Z,102435.00
2023-04-02T12:00:40.480Z,102451.28
2023-04-02T12:03:20.681Z,102443.81
2023-04-02T12:06:13.568Z,102443.81
2023-04-02T12:09:08.196Z,102455.19
2023-04-02T12:11:40.570Z,102431.66
2023-04-02T12:14:46.206Z,102461.91
2023-04-02T12:17:34.889Z,102451.53
2023-04-02T12:20:32.439Z,102453.34
2023-04-02T12:23:03.456Z,102462.06
2023-04-02T12:25:57.249Z,102466.41
2023-04-02T12:28:29.724Z,102462.88
2023-04-02T12:31:14.570Z,102393.75
2023-04-02T12:33:53.039Z,102459.59
2023-04-02T12:36:29.266Z,102466.22
2023-04-02T12:38:59.424Z,102461.31
2023-04-02T12:41:34.766Z,102465.41
2023-04-02T12:44:06.097Z,102463.00
2023-04-02T12:46:49.312Z,102467.50
2023-04-02T12:49:31.509Z,102469.63
2023-04-02T12:52:07.316Z,102474.16
2023-04-02T12:54:39.738Z,102467.28
2023-04-02T12:57:25.382Z,102474.16
2023-04-02T13:00:21.921Z,102476.75
2023-04-02T13:02:51.486Z,102449.88
2023-04-02T13:05:40.383Z,102475.31
2023-04-02T13:08:15.463Z,102475.59
2023-04-02T13:10:43.387Z,102462.94
2023-04-02T13:13:33.100Z,102469.03
2023-04-02T13:16:09.233Z,102478.81
2023-04-02T13:18:39.911Z,102462.31
2023-04-02T13:21:29.897Z,102479.34
2023-04-02T13:23:56.638Z,102473.28
2023-04-02T13:26:30.014Z,102469.81
2023-04-02T13:29:02.588Z,102464.84
2023-04-02T13:31:31.112Z,102469.22
2023-04-02T13:33:58.784Z,102460.25
2023-04-02T13:36:26.335Z,102467.22
2023-04-02T13:38:53.171Z,102466.19
2023-04-02T13:41:26.996Z,102474.06
2023-04-02T13:43:59.719Z,102454.25
2023-04-02T13:46:32.561Z,102472.94
2023-04-02T13:48:59.144Z,102481.34
2023-04-02T13:51:53.922Z,102478.38
2023-04-02T13:54:27.396Z,102489.38
2023-04-02T13:56:56.112Z,102497.38
2023-04-02T13:59:23.653Z,102498.91
2023-04-02T14:01:57.235Z,102493.94
2023-04-02T14:04:30.081Z,102500.06
2023-04-02T14:07:30.193Z,102512.00
2023-04-02T14:10:06.458Z,102503.28
2023-04-02T14:12:38.077Z,102495.47
2023-04-02T14:15:16.678Z,102509.34
2023-04-02T14:18:11.933Z,102505.78
2023-04-02T14:20:49.704Z,102495.53
2023-04-02T14:23:30.739Z,102502.03
2023-04-02T14:26:12.718Z,102518.28
2023-04-02T14:28:58.881Z,102516.00
2023-04-02T14:31:32.645Z,102522.97
2023-04-02T14:34:56.909Z,102514.38
2023-04-02T14:37:33.846Z,102508.50
2023-04-02T14:40:19.282Z,102519.88
2023-04-02T14:43:03.510Z,102520.28
2023-04-02T14:46:10.390Z,102516.25
2023-04-02T14:48:43.310Z,102544.44
2023-04-02T14:51:27.963Z,102536.00
2023-04-02T14:54:01.358Z,102538.63
2023-04-02T14:56:31.094Z,102526.97
2023-04-02T14:59:17.309Z,102550.59
2023-04-02T15:01:49.697Z,102542.63
2023-04-02T15:04:38.295Z,102543.53
2023-04-02T15:07:39.133Z,102546.59
2023-04-02T15:10:09.411Z,102548.84
2023-04-02T15:12:38.735Z,102547.81
2023-04-02T15:15:24.362Z,102541.03
2023-04-02T15:17:59.825Z,102547.28
2023-04-02T15:20:39.389Z,102547.00
2023-04-02T15:23:25.189Z,102540.50
2023-04-02T15:26:17.163Z,102546.25
2023-04-02T15:28:55.049Z,102478.50
2023-04-02T15:31:26.014Z,102553.84
2023-04-02T15:33:58.394Z,102557.53
2023-04-02T15:36:45.064Z,102559.59
2023-04-02T15:39:21.880Z,102541.66
2023-04-02T15:42:24.337Z,102549.53
2023-04-02T15:45:11.003Z,102555.84
2023-04-02T15:47:52.217Z,102556.06
2023-04-02T15:50:28.049Z,102562.16
2023-04-02T15:53:06.897Z,102570.66
2023-04-02T15:55:42.106Z,102573.00
2023-04-02T15:58:19.775Z,102580.63
2023-04-02T16:01:05.178Z,102584.91
2023-04-02T16:03:56.308Z,102558.94
2023-04-02T16:06:27.110Z,102589.88
2023-04-02T16:09:05.073Z,102582.00
2023-04-02T16:11:35.806Z,102589.28
2023-04-02T16:14:11.348Z,102589.00
2023-04-02T16:16:40.476Z,102588.22
2023-04-02T16:19:15.962Z,102596.41
2023-04-02T16:22:17.620Z,102603.72
2023-04-02T16:24:48.739Z,102580.94
2023-04-02T16:27:27.993Z,102608.34
2023-04-02T16:30:19.570Z,102609.25
2023-04-02T16:33:11.103Z,102604.66
2023-04-02T16:35:56.990Z,102614.91
2023-04-02T16:38:35.374Z,102615.09
2023-04-02T16:41:28.992Z,102627.94
2023-04-02T16:44:19.322Z,102629.09
2023-04-02T16:47:27.564Z,102636.03
2023-04-02T16:50:01.728Z,102627.16
2023-04-02T16:52:28.298Z,102629.88
2023-04-02T16:55:32.372Z,102637.94
2023-04-02T16:58:21.891Z,102640.59
2023-04-02T17:00:54.853Z,102646.13
2023-04-02T17:03:59.411Z,102653.63
2023-04-02T17:06:55.242Z,102593.72
2023-04-02T17:10:03.596Z,102664.31
2023-04-02T17:12:45.613Z,102668.22
2023-04-02T17:15:27.645Z,102643.59
2023-04-02T17:18:02.019Z,102664.31
2023-04-02T17:20:56.505Z,102676.56
2023-04-02T17:23:27.066Z,102666.72
2023-04-02T17:26:10.558Z,102688.13
2023-04-02T17:28:40.697Z,102696.66
2023-04-02T17:31:50.102Z,102695.28
2023-04-02T17:34:37.258Z,102701.09
2023-04-02T17:37:34.630Z,102697.59
2023-04-02T17:40:23.497Z,102708.59
2023-04-02T17:43:00.322Z,102710.06
2023-04-02T17:45:56.502Z,102720.53
2023-04-02T17:48:46.322Z,102719.25
2023-04-02T17:51:30.546Z,102715.56
2023-04-02T17:54:34.256Z,102733.63
2023-04-02T17:57:24.080Z,102738.63
2023-04-02T18:00:12.478Z,102746.19
2023-04-02T18:03:07.843Z,102722.41
2023-04-02T18:05:45.086Z,102754.69
2023-04-02T18:08:22.604Z,102758.78
2023-04-02T18:11:09.151Z,102759.19
2023-04-02T18:13:39.669Z,102761.56
2023-04-02T18:16:44.204Z,102765.66
2023-04-02T18:19:15.044Z,102749.56
2023-04-02T18:21:53.964Z,102771.13
2023-04-02T18:24:59.067Z,102774.97
2023-04-02T18:27:55.784Z,102779.19
2023-04-02T18:30:34.902Z,102783.44
2023-04-02T18:33:25.903Z,102739.06
2023-04-02T18:36:37.602Z,102799.50
2023-04-02T18:39:49.216Z,102798.94
2023-04-02T18:42:50.566Z,102803.97
2023-04-02T18:45:36.003Z,102807.91
2023-04-02T18:48:16.781Z,102805.63
2023-04-02T18:50:46.999Z,102820.34
2023-04-02T18:53:19.208Z,102817.94
2023-04-02T18:55:50.949Z,102821.69
2023-04-02T18:58:31.571Z,102795.19
2023-04-02T19:01:01.271Z,102840.41
2023-04-02T19:03:36.644Z,102850.44
2023-04-02T19:06:08.146Z,102855.19
2023-04-02T19:08:50.483Z,102855.44
2023-04-02T19:11:32.075Z,102860.09
2023-04-02T19:14:01.411Z,102850.00
2023-04-02T19:16:47.573Z,102853.78
2023-04-02T19:19:24.213Z,102868.16
2023-04-02T19:22:10.396Z,102865.81
2023-04-02T19:24:49.348Z,102866.81
2023-04-02T19:27:34.065Z,102872.41
2023-04-02T19:30:24.748Z,102872.72
2023-04-02T19:33:09.947Z,102876.56
2023-04-02T19:35:58.981Z,102877.47
2023-04-02T19:38:58.972Z,102878.84
2023-04-02T19:41:37.762Z,102878.47
2023-04-02T19:44:11.757Z,102872.72
2023-04-02T19:46:39.745Z,102885.31
2023-04-02T19:49:22.966Z,102891.75
2023-04-02T19:51:50.774Z,102872.50
2023-04-02T19:54:20.801Z,102891.34
2023-04-02T19:56:48.203Z,102899.78
2023-04-02T19:59:18.160Z,102876.09
2023-04-02T20:01:48.165Z,102816.50
2023-04-02T20:04:15.572Z,102886.16
2023-04-02T20:06:43.428Z,102885.41
2023-04-02T20:09:10.362Z,102869.00
2023-04-02T20:11:38.384Z,102900.84
2023-04-02T20:14:05.488Z,102902.81
2023-04-02T20:16:33.977Z,102902.06
2023-04-02T20:19:00.822Z,102882.88
2023-04-02T20:21:34.719Z,102889.09
2023-04-02T20:24:01.569Z,102898.84
2023-04-02T20:26:29.760Z,102917.47
2023-04-02T20:28:56.616Z,102903.50
2023-04-02T20:31:23.536Z,102913.22
2023-04-02T20:33:50.392Z,102922.25
2023-04-02T20:36:17.809Z,102915.91
2023-04-02T20:38:45.859Z,102922.19
2023-04-02T20:41:15.858Z,102909.66
2023-04-02T20:43:43.154Z,102916.28
2023-04-02T20:46:15.817Z,102942.84
2023-04-02T20:48:44.910Z,102809.81
2023-04-02T20:51:14.638Z,102935.84
2023-04-02T20:53:47.174Z,102957.31
2023-04-02T20:56:23.379Z,102931.63
2023-04-02T20:58:52.787Z,102891.28
2023-04-02T21:01:26.783Z,102948.44
2023-04-02T21:04:03.570Z,102931.13
2023-04-02T21:06:34.820Z,102909.13
2023-04-02T21:09:14.729Z,102951.75
2023-04-02T21:11:44.660Z,102947.47
2023-04-02T21:14:11.508Z,102965.41
2023-04-02T21:16:45.278Z,102801.56
2023-04-02T21:19:15.157Z,102928.56
2023-04-02T21:21:44.375Z,102927.06
2023-04-02T21:24:11.419Z,102898.09
2023-04-02T21:26:40.355Z,102982.81
2023-04-02T21:29:07.655Z,102982.94
2023-04-02T21:31:40.040Z,102988.47
2023-04-02T21:34:09.796Z,102871.28
2023-04-02T21:36:40.870Z,102981.53
2023-04-02T21:39:16.135Z,102909.69
2023-04-02T21:41:45.093Z,102988.28
2023-04-02T21:44:16.641Z,102929.28
2023-04-02T21:46:47.101Z,102984.19
2023-04-02T21:49:22.034Z,102967.50
2023-04-02T21:51:51.831Z,102941.41
2023-04-02T21:54:18.650Z,102980.19
2023-04-02T21:56:51.706Z,102961.00
2023-04-02T21:59:18.992Z,102976.19
2023-04-02T22:01:48.755Z,102986.91
2023-04-02T22:04:21.327Z,102938.63
2023-04-02T22:06:51.061Z,102974.78
2023-04-02T22:09:25.762Z,102971.59
2023-04-02T22:11:56.124Z,102998.38
2023-04-02T22:14:23.286Z,102996.63
2023-04-02T22:16:52.690Z,102984.34
2023-04-02T22:19:21.971Z,102998.72
2023-04-02T22:21:51.933Z,103003.19
2023-04-02T22:24:25.497Z,102983.06
2023-04-02T22:26:52.393Z,102976.91
2023-04-02T22:29:19.137Z,103006.31
2023-04-02T22:31:45.959Z,103010.88
2023-04-02T22:34:14.923Z,102999.31
2023-04-02T22:36:41.676Z,102973.94
2023-04-02T22:39:12.829Z,103010.31
2023-04-02T22:41:42.779Z,103016.78
2023-04-02T22:44:14.203Z,102969.31
2023-04-02T22:46:43.675Z,102992.31
2023-04-02T22:49:11.681Z,102995.00
2023-04-02T22:51:38.644Z,103007.34
2023-04-02T22:54:05.799Z,103018.09
2023-04-02T22:56:33.314Z,103004.06
2023-04-02T22:59:02.447Z,103015.50
2023-04-02T23:01:36.825Z,103008.50
2023-04-02T23:04:05.356Z,103020.16
2023-04-02T23:06:34.410Z,102995.44
2023-04-02T23:09:01.159Z,102982.28
2023-04-02T23:11:30.474Z,102999.25
2023-04-02T23:13:58.057Z,102986.97
2023-04-02T23:16:27.767Z,103015.47
2023-04-02T23:18:55.939Z,103015.63
2023-04-02T23:21:26.220Z,102930.94
2023-04-02T23:23:53.342Z,103009.53
2023-04-02T23:26:26.687Z,103006.03
2023-04-02T23:28:53.602Z,103018.59
2023-04-02T23:31:25.089Z,103001.78
2023-04-02T23:33:52.648Z,102999.09
2023-04-02T23:36:28.233Z,103030.97
2023-04-02T23:39:01.274Z,103032.78
2023-04-02T23:41:29.379Z,103030.06
2023-04-02T23:43:57.344Z,103036.47
2023-04-02T23:46:25.215Z,103007.13
2023-04-02T23:48:52.381Z,103030.34
2023-04-02T23:51:22.306Z,103036.66
2023-04-02T23:53:50.480Z,103031.41
2023-04-02T23:56:20.876Z,103034.16
2023-04-02T23:58:48.428Z,102979.47
